地図

経路データ

SID SEASON NUMBER BASIN SUBBASIN NAME ISO_TIME NATURE LAT LON WMO_WIND WMO_PRES WMO_AGENCY TRACK_TYPE DIST2LAND LANDFALL IFLAG USA_AGENCY USA_ATCF_ID USA_LAT USA_LON USA_RECORD USA_STATUS USA_WIND USA_PRES USA_SSHS USA_R34_NE USA_R34_SE USA_R34_SW USA_R34_NW USA_R50_NE USA_R50_SE USA_R50_SW USA_R50_NW USA_R64_NE USA_R64_SE USA_R64_SW USA_R64_NW USA_POCI USA_ROCI USA_RMW USA_EYE TOKYO_LAT TOKYO_LON TOKYO_GRADE TOKYO_WIND TOKYO_PRES TOKYO_R50_DIR TOKYO_R50_LONG TOKYO_R50_SHORT TOKYO_R30_DIR TOKYO_R30_LONG TOKYO_R30_SHORT TOKYO_LAND CMA_LAT CMA_LON CMA_CAT CMA_WIND CMA_PRES HKO_LAT HKO_LON HKO_CAT HKO_WIND HKO_PRES NEWDELHI_LAT NEWDELHI_LON NEWDELHI_GRADE NEWDELHI_WIND NEWDELHI_PRES NEWDELHI_CI NEWDELHI_DP NEWDELHI_POCI REUNION_LAT REUNION_LON REUNION_TYPE REUNION_WIND REUNION_PRES REUNION_TNUM REUNION_CI REUNION_RMW REUNION_R34_NE REUNION_R34_SE REUNION_R34_SW REUNION_R34_NW REUNION_R50_NE REUNION_R50_SE REUNION_R50_SW REUNION_R50_NW REUNION_R64_NE REUNION_R64_SE REUNION_R64_SW REUNION_R64_NW BOM_LAT BOM_LON BOM_TYPE BOM_WIND BOM_PRES BOM_TNUM BOM_CI BOM_RMW BOM_R34_NE BOM_R34_SE BOM_R34_SW BOM_R34_NW BOM_R50_NE BOM_R50_SE BOM_R50_SW BOM_R50_NW BOM_R64_NE BOM_R64_SE BOM_R64_SW BOM_R64_NW BOM_ROCI BOM_POCI BOM_EYE BOM_POS_METHOD BOM_PRES_METHOD NADI_LAT NADI_LON NADI_CAT NADI_WIND NADI_PRES WELLINGTON_LAT WELLINGTON_LON WELLINGTON_WIND WELLINGTON_PRES DS824_LAT DS824_LON DS824_STAGE DS824_WIND DS824_PRES TD9636_LAT TD9636_LON TD9636_STAGE TD9636_WIND TD9636_PRES TD9635_LAT TD9635_LON TD9635_WIND TD9635_PRES TD9635_ROCI NEUMANN_LAT NEUMANN_LON NEUMANN_CLASS NEUMANN_WIND NEUMANN_PRES MLC_LAT MLC_LON MLC_CLASS MLC_WIND MLC_PRES USA_GUST BOM_GUST BOM_GUST_PER REUNION_GUST REUNION_GUST_PER USA_SEAHGT USA_SEARAD_NE USA_SEARAD_SE USA_SEARAD_SW USA_SEARAD_NW STORM_SPEED STORM_DIR
1976135N09153 1976 55 WP MM PAMELA 1976-05-14 00:00:00 TS 8.90000 153.000 main 1320 1307 O________OOO__ jtwc_wp WP061976 8.90000 153.000 25 -1 8.90000 153.000 TC 25 8.90000 153.000 1 25 8.90000 153.000 25 1008 240 4 212
1976135N09153 1976 55 WP MM PAMELA 1976-05-14 03:00:00 TS 8.73899 152.905 main 1296 1270 P________PPP__ WP061976 8.74000 152.907 27 -1 8.74000 152.907 TC 27 8.73594 152.897 1 26 8.74000 152.907 27 1007 240 5 220
1976135N09153 1976 55 WP MM PAMELA 1976-05-14 06:00:00 TS 8.49083 152.650 1004 tokyo main 1270 1267 OOOO_____OPO__ jtwc_wp WP061976 8.60000 152.800 30 -1 8.10000 152.100 2 1004 0 0 0 8.00000 152.000 0 19 1003 8.10000 152.100 TD 25 1002 8.60000 152.800 TC 30 8.58750 152.785 1 27 8.60000 152.800 30 1006 240 5 239
1976135N09153 1976 55 WP MM PAMELA 1976-05-14 09:00:00 TS 8.46979 152.451 main 1267 1263 PPPP_____PPP__ WP061976 8.49249 152.665 30 -1 8.34997 152.217 2 1004 0 0 8.39728 151.740 0 19 1003 8.52490 151.703 TD 25 1001 8.49249 152.665 TC 30 8.47031 152.655 1 28 8.49249 152.665 30 1005 240 5 268
1976135N09153 1976 55 WP MM PAMELA 1976-05-14 12:00:00 TS 8.47200 152.164 1004 tokyo main 1263 1247 OOOO_____OOO__ jtwc_wp WP061976 8.40000 152.500 30 -1 8.50000 152.200 2 1004 0 0 0 8.60000 151.300 0 19 1003 8.70000 151.200 TD 25 1000 8.40000 152.500 TC 30 8.40000 152.500 1 30 8.40000 152.500 30 1005 240 7 263
1976135N09153 1976 55 WP MM PAMELA 1976-05-14 15:00:00 TS 8.38368 151.777 main 1247 1234 PPPP_____PPP__ WP061976 8.27749 152.315 30 -1 8.48757 151.972 2 1004 0 0 8.49526 150.630 0 24 1001 8.48766 150.580 TD 25 1000 8.27749 152.315 TC 30 8.38280 152.312 1 30 8.27749 152.315 30 1004 240 7 253
1976135N09153 1976 55 WP MM PAMELA 1976-05-14 18:00:00 TS 8.26964 151.499 1004 tokyo main 1234 1233 OOOO_____OPO__ jtwc_wp WP061976 8.20000 152.100 30 -1 8.40000 151.700 2 1004 0 0 0 8.30000 150.200 1 29 1000 8.20000 150.200 TD 25 1000 8.20000 152.100 TC 30 8.38747 152.095 1 30 8.20000 152.100 30 1004 240 3 253
1976135N09153 1976 55 WP MM PAMELA 1976-05-14 21:00:00 TS 8.28265 151.440 main 1233 1233 PPPP_____PPP__ WP061976 8.24247 151.873 30 -1 8.35746 151.593 2 1004 0 0 8.29271 150.560 1 33 999 8.22758 150.452 TD 27 1000 8.24247 151.873 TC 30 8.37340 151.856 1 30 8.24247 151.873 30 1004 240 1 288
1976135N09153 1976 55 WP MM PAMELA 1976-05-15 00:00:00 TS 8.30000 151.414 1004 tokyo main 1233 1233 OOOO_____OOO__ jtwc_wp WP061976 8.30000 151.600 30 -1 8.30000 151.500 2 1004 0 0 0 8.30000 151.100 2 38 999 8.30000 150.900 TD 30 1000 8.30000 151.600 TC 30 8.30000 151.600 1 30 8.30000 151.600 30 1004 240 2 262
1976135N09153 1976 55 WP MM PAMELA 1976-05-15 03:00:00 TS 8.25650 151.238 main 1233 1210 PPPP_____PPP__ WP061976 8.32505 151.243 32 -1 8.22252 151.308 2 1001 0 0 8.23740 151.248 2 38 998 8.23745 151.133 TD 30 999 8.32505 151.243 TC 32 8.12297 151.254 1 32 8.32505 151.243 32 1003 300 4 245
1976135N09153 1976 55 WP MM PAMELA 1976-05-15 06:00:00 TS 8.11181 151.015 998 tokyo main 1210 1171 OOOO_____OPO__ jtwc_wp WP061976 8.20000 150.900 35 0 8.10000 151.100 9 998 0 0 0 8.10000 151.200 2 38 998 8.10000 151.200 TD 30 998 8.20000 150.900 TC 35 7.88267 150.907 1 35 8.20000 150.900 35 1003 360 6 227
1976135N09153 1976 55 WP MM PAMELA 1976-05-15 09:00:00 TS 7.82336 150.773 main 1171 1132 PPPP_____PPP__ WP061976 7.80997 150.632 37 -1 7.92249 150.890 9 998 0 0 7.88005 150.985 2 38 998 7.93005 151.007 TD 32 997 7.80997 150.632 TC 37 7.60099 150.632 1 37 7.80997 150.632 37 1002 390 8 210
1976135N09153 1976 55 WP MM PAMELA 1976-05-15 12:00:00 TS 7.45714 150.629 998 tokyo main 1132 1094 OOOO_____OOO__ jtwc_wp WP061976 7.30000 150.500 40 0 7.70000 150.800 9 998 0 0 0 7.60000 150.800 2 38 998 7.70000 150.800 TS 35 996 7.30000 150.500 TC 40 7.30000 150.500 2 40 7.30000 150.500 40 1002 420 8 187
1976135N09153 1976 55 WP MM PAMELA 1976-05-15 15:00:00 TS 7.06700 150.672 main 1094 1053 PPPP_____PPP__ WP061976 6.80494 150.510 42 -1 7.44249 150.933 9 998 0 0 7.26990 150.845 2 38 996 7.39245 150.818 TS 40 995 6.80494 150.510 TC 42 6.94930 150.579 2 42 6.80494 150.510 42 1001 420 8 161
1976135N09153 1976 55 WP MM PAMELA 1976-05-15 18:00:00 TS 6.72785 150.887 998 tokyo main 1053 1031 OOOO_____OPO__ jtwc_wp WP061976 6.40000 150.700 45 0 7.20000 151.200 9 998 0 0 0 7.00000 151.100 2 38 995 7.10000 151.000 TS 45 994 6.40000 150.700 TC 45 6.59494 150.806 2 45 6.40000 150.700 45 1000 420 8 135
1976135N09153 1976 55 WP MM PAMELA 1976-05-15 21:00:00 TS 6.51369 151.232 main 1031 1021 PPPP_____PPP__ WP061976 6.14503 151.048 47 -1 7.02751 151.485 9 996 0 0 6.92012 151.562 2 38 994 6.92002 151.305 TS 50 993 6.14503 151.048 TC 47 6.29309 151.129 2 47 6.14503 151.048 47 999 420 8 111
1976135N09153 1976 55 WP MM PAMELA 1976-05-16 00:00:00 TS 6.42857 151.657 994 tokyo main 1023 1023 OOOO_____OOO__ jtwc_wp WP061976 6.10000 151.500 50 0 6.90000 151.800 9 994 0 0 0 6.90000 152.100 2 38 994 6.80000 151.700 STS 55 992 6.10000 151.500 TC 50 6.10000 151.500 2 50 6.10000 151.500 50 998 420 8 92
1976135N09153 1976 55 WP MM PAMELA 1976-05-16 03:00:00 TS 6.48704 152.073 main 1039 1039 PPPP_____PPP__ WP061976 6.33503 151.965 55 -1 6.80747 152.092 9 993 0 0 6.81500 152.553 2 43 992 6.69250 152.100 STS 60 991 6.33503 151.965 TC 55 6.08924 151.875 2 53 6.33503 151.965 55 994 420 8 80
1976135N09153 1976 55 WP MM PAMELA 1976-05-16 06:00:00 TS 6.56968 152.468 992 tokyo main 1057 1050 OOOO_____OPO__ jtwc_wp WP061976 6.60000 152.400 60 0 6.70000 152.400 9 992 0 0 0 6.70000 152.900 3 48 990 6.60000 152.500 T 65 990 6.60000 152.400 TC 60 6.18777 152.279 2 57 6.60000 152.400 60 991 420 7 88
1976135N09153 1976 55 WP MM PAMELA 1976-05-16 09:00:00 TS 6.51246 152.801 main 1052 1046 PPPP_____PPP__ WP061976 6.58746 152.738 62 -1 6.47753 152.765 9 988 0 0 6.52744 153.080 3 48 987 6.47750 152.880 T 65 987 6.58746 152.738 TC 62 6.34238 152.669 2 61 6.58746 152.738 62 988 420 6 102
1976135N09153 1976 55 WP MM PAMELA 1976-05-16 12:00:00 TS 6.44286 153.071 985 tokyo main 1048 1048 OOOO_____OOO__ jtwc_wp WP061976 6.50000 153.000 65 1 6.30000 153.100 9 985 0 0 0 6.40000 153.200 3 48 985 6.40000 153.200 T 65 985 6.50000 153.000 TC 65 6.50000 153.000 3 65 6.50000 153.000 65 985 420 5 98
1976135N09153 1976 55 WP MM PAMELA 1976-05-16 15:00:00 TS 6.44162 153.306 main 1054 1054 PPPP_____PPP__ WP061976 6.46999 153.230 67 -1 6.28997 153.337 9 982 0 0 6.40502 153.415 3 53 983 6.41248 153.445 T 65 982 6.46999 153.230 TC 67 6.57393 153.251 3 66 6.46999 153.230 67 982 450 4 81
1976135N09153 1976 55 WP MM PAMELA 1976-05-16 18:00:00 TS 6.50605 153.476 980 tokyo main 1070 1070 OOOO_____OPO__ jtwc_wp WP061976 6.50000 153.400 70 1 6.40000 153.500 9 980 0 0 0 6.50000 153.600 3 58 981 6.50000 153.600 T 65 980 6.50000 153.400 TC 70 6.64234 153.435 3 67 6.50000 153.400 70 979 480 3 57
1976135N09153 1976 55 WP MM PAMELA 1976-05-16 21:00:00 TS 6.63386 153.598 main 1084 1084 PPPP_____PPP__ WP061976 6.62749 153.537 70 -1 6.58499 153.645 9 977 0 0 6.62749 153.688 3 63 979 6.62749 153.688 T 65 977 6.62749 153.537 TC 70 6.71459 153.551 3 68 6.62749 153.537 70 977 510 3 29
1976135N09153 1976 55 WP MM PAMELA 1976-05-17 00:00:00 TS 6.80000 153.643 975 tokyo main 1106 1106 OOOO_____OOO__ jtwc_wp WP061976 6.80000 153.600 70 1 6.80000 153.700 9 975 0 0 0 6.80000 153.700 4 68 978 6.80000 153.700 T 65 975 6.80000 153.600 TC 70 6.80000 153.600 4 70 6.80000 153.600 70 975 540 3 0
1976135N09153 1976 55 WP MM PAMELA 1976-05-17 03:00:00 TS 6.96334 153.616 main 1127 1127 PPPP_____PPP__ WP061976 6.95750 153.580 70 -1 6.96500 153.630 9 975 0 0 7.00750 153.665 4 68 976 7.00000 153.665 T 65 975 6.95750 153.580 TC 70 6.89838 153.614 4 70 6.95750 153.580 70 973 540 3 341
1976135N09153 1976 55 WP MM PAMELA 1976-05-17 06:00:00 TS 7.11606 153.537 975 tokyo main 1135 1135 OOOO_____OPO__ jtwc_wp WP061976 7.10000 153.500 70 1 7.10000 153.500 9 975 0 0 0 7.20000 153.600 4 68 975 7.20000 153.600 T 65 975 7.10000 153.500 TC 70 7.01241 153.562 4 70 7.10000 153.500 70 972 540 3 330
1976135N09153 1976 55 WP MM PAMELA 1976-05-17 09:00:00 TS 7.22896 153.462 main 1146 1143 PPPP_____PPP__ WP061976 7.20000 153.415 70 -1 7.18500 153.400 9 972 0 0 7.31498 153.572 4 68 972 7.35749 153.565 T 65 972 7.20000 153.415 TC 70 7.14525 153.455 4 70 7.20000 153.415 70 971 540 3 322
1976135N09153 1976 55 WP MM PAMELA 1976-05-17 12:00:00 TS 7.34286 153.357 970 tokyo main 1154 1154 OOOO_____OOO__ jtwc_wp WP061976 7.30000 153.300 70 1 7.30000 153.300 9 970 0 0 0 7.40000 153.500 4 68 970 7.50000 153.500 T 65 970 7.30000 153.300 TC 70 7.30000 153.300 4 70 7.30000 153.300 70 970 540 3 318
1976135N09153 1976 55 WP MM PAMELA 1976-05-17 15:00:00 TS 7.48359 153.233 main 1171 1171 PPPP_____PPP__ WP061976 7.42747 153.180 72 -1 7.52746 153.230 9 967 0 0 7.46999 153.337 4 72 967 7.63499 153.380 T 65 967 7.42747 153.180 TC 72 7.47026 153.142 4 72 7.42747 153.180 72 967 600 4 316
1976135N09153 1976 55 WP MM PAMELA 1976-05-17 18:00:00 TS 7.66606 153.049 965 tokyo main 1188 1188 OOOO_____OPO__ jtwc_wp WP061976 7.60000 153.000 75 1 7.80000 153.100 9 965 0 0 0 7.60000 153.100 4 77 965 7.80000 153.200 T 65 965 7.60000 153.000 TC 75 7.66239 152.940 4 75 7.60000 153.000 75 965 660 6 314
1976135N09153 1976 55 WP MM PAMELA 1976-05-17 21:00:00 TS 7.90799 152.784 main 1206 1206 PPPP_____PPP__ WP061976 7.83502 152.723 77 -1 8.05001 152.838 9 960 0 0 7.88499 152.823 4 77 963 8.04251 152.965 T 67 960 7.83502 152.723 TC 77 7.87333 152.692 4 77 7.83502 152.723 77 960 720 8 311
1976135N09153 1976 55 WP MM PAMELA 1976-05-18 00:00:00 TS 8.17143 152.471 955 tokyo main 1234 1232 OOOO_____OOO__ jtwc_wp WP061976 8.10000 152.400 80 1 8.30000 152.500 9 955 0 0 0 8.20000 152.500 4 77 962 8.30000 152.700 T 70 955 8.10000 152.400 TC 80 8.10000 152.400 4 80 8.10000 152.400 80 955 780 8 310
1976135N09153 1976 55 WP MM PAMELA 1976-05-18 03:00:00 TS 8.41113 152.182 main 1252 1250 PPPP_____PPP__ WP061976 8.34992 152.122 82 -1 8.55747 152.165 9 952 0 0 8.40747 152.165 4 82 953 8.50739 152.487 T 72 950 8.34992 152.122 TC 82 8.35585 152.089 4 83 8.34992 152.122 82 952 840 8 308
1976135N09153 1976 55 WP MM PAMELA 1976-05-18 06:00:00 TS 8.64605 151.848 950 tokyo main 1270 1270 OOOO_____OPO__ jtwc_wp WP061976 8.60000 151.800 85 2 8.80000 151.800 9 950 0 0 0 8.60000 151.800 5 87 945 8.70000 152.200 T 75 945 8.60000 151.800 TC 85 8.62233 151.733 4 87 8.60000 151.800 85 950 900 9 303
1976135N09153 1976 55 WP MM PAMELA 1976-05-18 09:00:00 TS 8.89001 151.435 main 1301 1300 PPPP_____PPP__ WP061976 8.85749 151.380 90 -1 9.01498 151.407 9 945 0 0 8.85746 151.415 5 87 942 8.90753 151.745 T 80 942 8.85749 151.380 TC 90 8.87764 151.335 4 91 8.85749 151.380 90 947 930 10 298
1976135N09153 1976 55 WP MM PAMELA 1976-05-18 12:00:00 TS 9.11429 150.971 940 tokyo main 1317 1313 OOOO_____OOO__ jtwc_wp WP061976 9.10000 150.900 95 2 9.20000 151.000 9 940 0 0 0 9.10000 151.000 5 87 940 9.10000 151.200 ST 85 940 9.10000 150.900 TC 95 9.10000 150.900 4 95 9.10000 150.900 95 944 960 10 294
1976135N09153 1976 55 WP MM PAMELA 1976-05-18 15:00:00 TS 9.30919 150.494 main 1322 1320 PPPP_____PPP__ WP061976 9.32996 150.408 100 -1 9.37240 150.615 9 940 0 0 9.27991 150.572 5 87 940 9.26501 150.642 ST 87 940 9.32996 150.408 TC 100 9.25716 150.403 4 100 9.32996 150.408 100 942 990 10 289
1976135N09153 1976 55 WP MM PAMELA 1976-05-18 18:00:00 TS 9.45435 149.997 940 tokyo main 1331 1320 OOOO_____OPO__ jtwc_wp WP061976 9.50000 149.900 105 3 9.50000 150.200 9 940 0 0 0 9.40000 150.100 5 87 940 9.40000 150.100 ST 90 940 9.50000 149.900 TC 105 9.38044 149.877 4 105 9.50000 149.900 105 940 1020 10 282
1976135N09153 1976 55 WP MM PAMELA 1976-05-18 21:00:00 TS 9.52192 149.483 main 1320 1315 PPPP_____PPP__ WP061976 9.55754 149.370 110 -1 9.54996 149.722 9 935 0 0 9.44257 149.542 5 92 935 9.49985 149.642 ST 95 935 9.55754 149.370 TC 110 9.48844 149.363 4 110 9.55754 149.370 110 935 1050 10 278
1976135N09153 1976 55 WP MM PAMELA 1976-05-19 00:00:00 TS 9.58571 149.000 930 tokyo main 1322 1320 OOOO_____OOO__ jtwc_wp WP061976 9.60000 148.900 115 4 9.60000 149.200 9 930 0 0 0 9.50000 149.000 5 97 930 9.60000 149.200 SuperT 100 930 9.60000 148.900 TC 115 9.60000 148.900 4 115 9.60000 148.900 115 930 1080 9 283
1976135N09153 1976 55 WP MM PAMELA 1976-05-19 03:00:00 TS 9.72880 148.585 main 1328 1327 PPPP_____PPP__ WP061976 9.73488 148.570 120 -1 9.73514 148.605 9 927 0 0 9.68491 148.563 5 97 927 9.74257 148.678 SuperT 105 927 9.73488 148.570 TC 120 9.73431 148.538 4 118 9.73488 148.570 120 927 1020 8 292
1976135N09153 1976 55 WP MM PAMELA 1976-05-19 06:00:00 TS 9.89672 148.233 925 tokyo main 1347 1346 OOOO_____OPO__ jtwc_wp WP061976 9.90000 148.300 125 4 9.90000 148.100 9 925 0 0 0 9.90000 148.200 5 97 925 9.90000 148.200 SuperT 110 925 9.90000 148.300 TC 125 9.87704 148.232 4 122 9.90000 148.300 125 925 960 7 296
1976135N09153 1976 55 WP MM PAMELA 1976-05-19 09:00:00 TS 10.0408 147.934 main 1356 1356 PPPP_____PPP__ WP061976 10.0425 147.992 127 -1 10.0348 147.862 9 925 0 0 10.0499 147.877 5 111 923 10.0424 147.862 SuperT 112 925 10.0425 147.992 TC 127 10.0313 147.960 4 126 10.0425 147.992 127 924 900 6 299
1976135N09153 1976 55 WP MM PAMELA 1976-05-19 12:00:00 TS 10.2000 147.671 925 tokyo main 1378 1378 OOOO_____OOO__ jtwc_wp WP061976 10.2000 147.700 130 4 10.2000 147.700 9 925 0 0 0 10.2000 147.600 6 126 921 10.2000 147.600 SuperT 115 925 10.2000 147.700 TC 130 10.2000 147.700 4 130 10.2000 147.700 130 923 840 6 305
1976135N09153 1976 55 WP MM PAMELA 1976-05-19 15:00:00 TS 10.3987 147.408 main 1400 1400 PPPP_____PPP__ WP061976 10.3924 147.450 130 -1 10.4500 147.408 9 922 0 0 10.3849 147.350 6 126 921 10.3849 147.350 SuperT 115 922 10.3924 147.450 TC 130 10.3937 147.402 4 130 10.3924 147.450 130 922 810 7 309
1976135N09153 1976 55 WP MM PAMELA 1976-05-19 18:00:00 TS 10.6143 147.145 920 tokyo main 1423 1423 OOOO_____OPO__ jtwc_wp WP061976 10.6000 147.200 130 4 10.7000 147.100 9 920 0 0 0 10.6000 147.100 6 126 921 10.6000 147.100 SuperT 115 920 10.6000 147.200 TC 130 10.6000 147.113 4 130 10.6000 147.200 130 921 780 7 308
1976135N09153 1976 55 WP MM PAMELA 1976-05-19 21:00:00 TS 10.8331 146.845 main 1445 1445 PPPP_____PPP__ WP061976 10.8075 146.893 130 -1 10.8725 146.835 9 920 0 0 10.8725 146.785 6 126 921 10.8576 146.778 SuperT 115 920 10.8075 146.893 TC 130 10.8063 146.842 4 130 10.8075 146.893 130 922 750 7 306
1976135N09153 1976 55 WP MM PAMELA 1976-05-20 00:00:00 TS 11.0286 146.571 920 tokyo main 1467 1467 OOOO_____OOO__ jtwc_wp WP061976 11.0000 146.600 130 4 11.0000 146.600 9 920 0 0 0 11.1000 146.500 6 126 921 11.1000 146.500 SuperT 115 920 11.0000 146.600 TC 130 11.0000 146.600 4 130 11.0000 146.600 130 923 720 6 305
1976135N09153 1976 55 WP MM PAMELA 1976-05-20 03:00:00 TS 11.1604 146.371 main 1490 1490 PPPP_____PPP__ WP061976 11.1575 146.377 127 -1 11.0925 146.377 9 920 0 0 11.1575 146.320 6 116 923 11.2649 146.377 SuperT 112 922 11.1575 146.377 TC 127 11.1358 146.388 4 128 11.1575 146.377 127 925 720 4 306
1976135N09153 1976 55 WP MM PAMELA 1976-05-20 06:00:00 TS 11.2803 146.215 920 tokyo main 1502 1502 OOOO_____OPO__ jtwc_wp WP061976 11.3000 146.200 125 4 11.2000 146.200 9 920 0 0 0 11.2000 146.200 6 106 925 11.4000 146.300 SuperT 110 925 11.3000 146.200 TC 125 11.2624 146.205 4 127 11.3000 146.200 125 927 720 4 312
1976135N09153 1976 55 WP MM PAMELA 1976-05-20 09:00:00 TS 11.4268 146.071 main 1513 1513 PPPP_____PPP__ WP061976 11.4350 146.035 125 -1 11.3700 146.092 9 925 0 0 11.3700 146.100 6 106 927 11.5350 146.157 SuperT 110 927 11.4350 146.035 TC 125 11.4077 146.044 4 126 11.4350 146.035 125 928 720 4 322
1976135N09153 1976 55 WP MM PAMELA 1976-05-20 12:00:00 TS 11.6143 145.943 930 tokyo main 1536 1536 OOOO_____OOO__ jtwc_wp WP061976 11.6000 145.900 125 4 11.6000 146.000 9 930 0 0 0 11.6000 146.000 6 106 930 11.7000 146.000 SuperT 110 930 11.6000 145.900 TC 125 11.6000 145.900 4 125 11.6000 145.900 125 930 720 5 330
1976135N09153 1976 55 WP MM PAMELA 1976-05-20 15:00:00 TS 11.8520 145.825 main 1571 1571 PPPP_____PPP__ WP061976 11.8125 145.800 122 -1 11.8925 145.865 9 930 0 0 11.8125 145.865 6 106 930 11.9350 145.865 SuperT 107 930 11.8125 145.800 TC 122 11.8867 145.781 4 123 11.8125 145.800 122 931 690 6 336
1976135N09153 1976 55 WP MM PAMELA 1976-05-20 18:00:00 TS 12.1457 145.696 930 tokyo main 1594 1594 OOOO_____OPO__ jtwc_wp WP061976 12.1000 145.700 120 4 12.2000 145.700 9 930 0 0 0 12.1000 145.700 6 106 931 12.2000 145.700 SuperT 105 930 12.1000 145.700 TC 120 12.2198 145.672 4 122 12.1000 145.700 120 932 660 7 336
1976135N09153 1976 55 WP MM PAMELA 1976-05-20 21:00:00 TS 12.5004 145.535 main 1640 1640 PPPP_____PPP__ WP061976 12.5075 145.573 120 -1 12.4350 145.507 9 932 0 0 12.5425 145.508 6 106 931 12.4350 145.457 SuperT 105 932 12.5075 145.573 TC 120 12.5680 145.553 4 121 12.5075 145.573 120 932 660 8 334
1976135N09153 1976 55 WP MM PAMELA 1976-05-21 00:00:00 TS 12.8571 145.343 935 tokyo main 1686 1686 OOOO_____OOO__ jtwc_wp WP061976 12.9000 145.400 120 4 12.7000 145.300 9 935 0 0 0 13.0000 145.300 6 106 932 12.7000 145.200 SuperT 105 935 12.9000 145.400 TC 120 12.9000 145.400 4 120 12.9000 145.400 120 933 660 8 328
1976135N09153 1976 55 WP MM PAMELA 1976-05-21 03:00:00 TS 13.1335 145.128 main 1711 1711 PPPP_____PPP__ WP061976 13.1150 145.165 120 -1 13.0850 145.107 9 935 0 0 13.3149 145.115 6 106 932 13.0425 144.992 SuperT 105 935 13.1150 145.165 TC 120 13.1473 145.186 4 120 13.1150 145.165 120 933 660 7 321
1976135N09153 1976 55 WP MM PAMELA 1976-05-21 06:00:00 TS 13.3968 144.891 935 tokyo main 1746 1746 OOOO_____OPO__ jtwc_wp WP061976 13.3000 144.900 120 4 13.5000 144.900 9 935 0 0 0 13.6000 144.900 6 106 933 13.4000 144.800 SuperT 105 935 13.3000 144.900 TC 120 13.3776 144.937 4 120 13.3000 144.900 120 933 660 7 320
1976135N09153 1976 55 WP MM PAMELA 1976-05-21 09:00:00 TS 13.6942 144.637 main 1783 1783 PPPP_____PPP__ WP061976 13.5775 144.642 120 -1 13.8650 144.650 9 935 0 0 13.9425 144.608 6 106 933 13.7000 144.607 SuperT 105 935 13.5775 144.642 TC 120 13.6191 144.670 4 120 13.5775 144.642 120 933 660 8 321
1976135N09153 1976 55 WP MM PAMELA 1976-05-21 12:00:00 TS 14.0143 144.386 935 tokyo main 1819 1819 OOOO_____OOO__ jtwc_wp WP061976 13.9000 144.400 120 4 14.2000 144.400 9 935 0 0 0 14.3000 144.300 6 106 934 14.0000 144.400 SuperT 105 935 13.9000 144.400 TC 120 13.9000 144.400 4 120 13.9000 144.400 120 933 660 8 325
1976135N09153 1976 55 WP MM PAMELA 1976-05-21 15:00:00 TS 14.3418 144.170 main 1856 1856 PPPP_____PPP__ WP061976 14.2274 144.207 120 -1 14.4924 144.200 9 935 0 0 14.6424 144.042 6 106 934 14.3350 144.157 SuperT 105 935 14.2274 144.207 TC 120 14.2405 144.166 4 120 14.2274 144.207 120 933 660 8 328
1976135N09153 1976 55 WP MM PAMELA 1976-05-21 18:00:00 TS 14.7035 143.947 935 tokyo main 1905 1905 OOOO_____OPO__ jtwc_wp WP061976 14.6000 144.000 120 4 14.8000 144.000 9 935 0 0 0 15.0000 143.800 6 106 934 14.7000 143.900 SuperT 105 935 14.6000 144.000 TC 120 14.6247 143.929 4 120 14.6000 144.000 120 934 660 9 329
1976135N09153 1976 55 WP MM PAMELA 1976-05-21 21:00:00 TS 15.1152 143.693 main 1953 1953 PPPP_____PPP__ WP061976 15.0350 143.722 120 -1 15.1699 143.780 9 935 0 0 15.3924 143.565 6 106 934 15.0924 143.657 SuperT 105 935 15.0350 143.722 TC 120 15.0467 143.678 4 120 15.0350 143.722 120 934 660 10 328
1976135N09153 1976 55 WP MM PAMELA 1976-05-22 00:00:00 TS 15.5571 143.400 935 tokyo main 1969 1943 OOOO_____OOO__ jtwc_wp WP061976 15.5000 143.400 120 4 15.6000 143.500 9 935 0 0 0 15.8000 143.300 6 106 935 15.5000 143.400 SuperT 105 935 15.5000 143.400 TC 120 15.5000 143.400 4 120 15.5000 143.400 120 935 660 11 325
1976135N09153 1976 55 WP MM PAMELA 1976-05-22 03:00:00 TS 15.9978 143.062 main 1945 1912 PPPP_____PPP__ WP061976 15.9350 143.057 120 -1 16.1076 143.115 9 935 0 0 16.2000 142.965 6 111 935 15.8925 143.107 SuperT 105 935 15.9350 143.057 TC 120 15.9795 143.075 4 120 15.9350 143.057 120 935 630 11 323
1976135N09153 1976 55 WP MM PAMELA 1976-05-22 06:00:00 TS 16.4550 142.703 935 tokyo main 1914 1890 OOOO_____OPO__ jtwc_wp WP061976 16.4000 142.700 120 4 16.6000 142.700 9 935 0 0 0 16.6000 142.600 6 116 935 16.3000 142.800 SuperT 105 935 16.4000 142.700 TC 120 16.4851 142.723 4 120 16.4000 142.700 120 935 600 12 324
1976135N09153 1976 55 WP MM PAMELA 1976-05-22 09:00:00 TS 16.9290 142.359 main 1893 1866 PPPP_____PPP__ WP061976 16.9424 142.350 120 -1 16.9574 142.342 9 935 0 0 16.9924 142.250 6 116 935 16.7274 142.515 SuperT 105 935 16.9424 142.350 TC 120 16.9982 142.359 4 120 16.9424 142.350 120 934 570 12 325
1976135N09153 1976 55 WP MM PAMELA 1976-05-22 12:00:00 TS 17.4143 142.014 935 tokyo main 1866 1828 OOOO_____OOO__ jtwc_wp WP061976 17.5000 142.000 120 4 17.3000 142.000 9 935 0 0 0 17.4000 141.900 6 116 935 17.2000 142.200 SuperT 105 935 17.5000 142.000 TC 120 17.5000 142.000 4 120 17.5000 142.000 120 933 540 12 325
1976135N09153 1976 55 WP MM PAMELA 1976-05-22 15:00:00 TS 17.9076 141.652 main 1828 1760 PPPP_____PPP__ WP061976 18.0225 141.642 120 -1 17.7350 141.642 9 935 0 0 17.8275 141.542 6 116 935 17.7425 141.808 SuperT 105 935 18.0225 141.642 TC 120 17.9806 141.647 4 118 18.0225 141.642 120 932 540 12 325
1976135N09153 1976 55 WP MM PAMELA 1976-05-22 18:00:00 TS 18.3921 141.301 935 tokyo main 1760 1705 OOOO_____OPO__ jtwc_wp WP061976 18.5000 141.300 120 4 18.2000 141.300 9 935 0 0 0 18.3000 141.200 6 116 935 18.3000 141.400 SuperT 105 935 18.5000 141.300 TC 120 18.4450 141.305 4 117 18.5000 141.300 120 932 540 11 326
1976135N09153 1976 55 WP MM PAMELA 1976-05-22 21:00:00 TS 18.8538 140.976 main 1695 1641 PPPP_____PPP__ WP061976 18.9224 140.985 117 -1 18.6499 140.985 9 935 0 0 18.8574 140.885 6 121 935 18.8150 141.020 SuperT 102 935 18.9224 140.985 TC 117 18.8869 140.985 4 116 18.9224 140.985 117 933 510 11 327
1976135N09153 1976 55 WP MM PAMELA 1976-05-23 00:00:00 TS 19.2857 140.686 935 tokyo main 1641 1586 OOOO_____OOO__ jtwc_wp WP061976 19.3000 140.700 115 4 19.1000 140.700 9 935 0 0 0 19.4000 140.600 6 126 936 19.3000 140.700 SuperT 100 935 19.3000 140.700 TC 115 19.3000 140.700 4 115 19.3000 140.700 115 934 480 10 328
1976135N09153 1976 55 WP MM PAMELA 1976-05-23 03:00:00 TS 19.6845 140.421 main 1586 1547 PPPP_____PPP__ WP061976 19.6575 140.427 115 -1 19.5425 140.435 9 935 0 0 19.8225 140.327 6 126 936 19.7798 140.485 SuperT 100 937 19.6575 140.427 TC 115 19.6745 140.419 4 115 19.6575 140.427 115 936 480 9 329
1976135N09153 1976 55 WP MM PAMELA 1976-05-23 06:00:00 TS 20.0603 140.197 935 tokyo main 1537 1498 OOOO_____OPO__ jtwc_wp WP061976 20.0000 140.200 115 4 20.0000 140.200 9 935 0 0 0 20.2000 140.100 6 126 936 20.2000 140.300 SuperT 100 940 20.0000 140.200 TC 115 20.0223 140.180 4 115 20.0000 140.200 115 938 480 9 332
1976135N09153 1976 55 WP MM PAMELA 1976-05-23 09:00:00 TS 20.4352 139.994 main 1498 1455 PPPP_____PPP__ WP061976 20.3500 140.020 115 -1 20.5225 139.963 9 935 0 0 20.6150 139.913 6 121 938 20.5001 140.020 SuperT 100 940 20.3500 140.020 TC 115 20.3590 140.001 4 115 20.3500 140.020 115 939 480 8 337
1976135N09153 1976 55 WP MM PAMELA 1976-05-23 12:00:00 TS 20.8000 139.857 935 tokyo main 1455 1421 OOOO_____OOO__ jtwc_wp WP061976 20.7000 139.900 115 4 21.0000 139.800 9 935 0 0 0 21.0000 139.800 6 116 940 20.8000 139.800 SuperT 100 940 20.7000 139.900 TC 115 20.7000 139.900 4 115 20.7000 139.900 115 941 480 8 345
1976135N09153 1976 55 WP MM PAMELA 1976-05-23 15:00:00 TS 21.1557 139.785 main 1412 1384 PPPP_____PPP__ WP061976 21.0424 139.798 112 -1 21.3299 139.747 9 940 0 0 21.3074 139.748 6 111 942 21.2574 139.732 SuperT 97 942 21.0424 139.798 TC 112 21.0676 139.875 4 113 21.0424 139.798 112 943 480 7 358
1976135N09153 1976 55 WP MM PAMELA 1976-05-23 18:00:00 TS 21.5060 139.819 945 tokyo main 1384 1356 OOOO_____OPO__ jtwc_wp WP061976 21.4000 139.800 110 3 21.6000 139.800 9 945 0 0 0 21.6000 139.800 6 106 945 21.7000 139.800 ST 95 945 21.4000 139.800 TC 110 21.4422 139.930 4 112 21.4000 139.800 110 946 480 7 13
1976135N09153 1976 55 WP MM PAMELA 1976-05-23 21:00:00 TS 21.8580 139.966 main 1348 1319 PPPP_____PPP__ WP061976 21.8001 139.962 110 -1 21.8850 139.920 9 947 0 0 21.9424 139.948 6 101 947 21.9575 139.963 ST 95 947 21.8001 139.962 TC 110 21.8208 140.044 4 111 21.8001 139.962 110 948 480 8 26
1976135N09153 1976 55 WP MM PAMELA 1976-05-24 00:00:00 TS 22.2143 140.186 950 tokyo main 1322 1286 OOOO_____OOO__ jtwc_wp WP061976 22.2000 140.200 110 3 22.2000 140.100 9 950 0 0 0 22.3000 140.200 5 97 950 22.2000 140.200 ST 95 950 22.2000 140.200 TC 110 22.2000 140.200 4 110 22.2000 140.200 110 950 480 8 29
1976135N09153 1976 55 WP MM PAMELA 1976-05-24 03:00:00 TS 22.5823 140.408 main 1286 1262 PPPP_____PPP__ WP061976 22.5500 140.400 105 -1 22.6075 140.300 9 952 0 0 22.6502 140.550 5 92 952 22.5850 140.435 ST 92 950 22.5500 140.400 TC 105 22.5832 140.368 4 105 22.5500 140.400 105 952 510 9 30
1976135N09153 1976 55 WP MM PAMELA 1976-05-24 06:00:00 TS 22.9522 140.639 955 tokyo main 1252 1228 OOOO_____OPO__ jtwc_wp WP061976 22.9000 140.600 100 3 23.0000 140.500 9 955 0 0 0 23.0000 140.900 5 87 955 23.0000 140.700 ST 90 950 22.9000 140.600 TC 100 22.9652 140.570 4 100 22.9000 140.600 100 954 540 8 29
1976135N09153 1976 55 WP MM PAMELA 1976-05-24 09:00:00 TS 23.3128 140.853 main 1232 1195 PPPP_____PPP__ WP061976 23.3075 140.800 95 -1 23.2500 140.658 9 955 0 0 23.3348 141.115 5 82 955 23.3426 141.008 ST 85 952 23.3075 140.800 TC 95 23.3395 140.787 4 95 23.3075 140.800 95 954 570 8 28
1976135N09153 1976 55 WP MM PAMELA 1976-05-24 12:00:00 TS 23.6714 141.057 955 tokyo main 1199 1173 OOOO_____OOO__ jtwc_wp WP061976 23.7000 141.000 90 2 23.5000 140.800 9 955 0 0 0 23.7000 141.300 4 77 955 23.7000 141.300 T 80 955 23.7000 141.000 TC 90 23.7000 141.000 4 90 23.7000 141.000 90 955 600 8 27
1976135N09153 1976 55 WP MM PAMELA 1976-05-24 15:00:00 TS 24.0352 141.257 main 1177 1142 PPPP_____PPP__ WP061976 24.0075 141.208 85 -1 23.8850 140.950 9 957 0 0 24.1501 141.557 4 72 957 24.1498 141.500 T 75 955 24.0075 141.208 TC 85 24.0391 141.167 4 86 24.0075 141.208 85 956 600 8 26
1976135N09153 1976 55 WP MM PAMELA 1976-05-24 18:00:00 TS 24.3949 141.447 960 tokyo main 1142 1121 OOOO_____OPO__ jtwc_wp WP061976 24.3000 141.400 80 1 24.3000 141.100 9 960 0 0 0 24.6000 141.800 4 68 960 24.6000 141.700 T 70 955 24.3000 141.400 TC 80 24.3646 141.329 4 82 24.3000 141.400 80 957 600 8 25
1976135N09153 1976 55 WP MM PAMELA 1976-05-24 21:00:00 TS 24.7360 141.610 main 1121 1093 PPPP_____PPP__ WP061976 24.6424 141.543 77 -1 24.6349 141.228 9 960 0 0 24.9573 141.943 4 68 962 24.9499 141.970 T 67 957 24.6424 141.543 TC 77 24.6828 141.501 4 78 24.6424 141.543 77 958 570 8 25
1976135N09153 1976 55 WP MM PAMELA 1976-05-25 00:00:00 TS 25.0857 141.800 960 tokyo main 1093 1060 OOOO_____OOO__ jtwc_wp WP061976 25.0000 141.700 75 1 25.0000 141.400 9 960 0 0 0 25.3000 142.100 4 68 965 25.3000 142.300 T 65 960 25.0000 141.700 TC 75 25.0000 141.700 4 75 25.0000 141.700 75 960 540 9 29
1976135N09153 1976 55 WP MM PAMELA 1976-05-25 03:00:00 TS 25.4770 142.064 main 1063 1037 PPPP_____PPP__ WP061976 25.3575 141.928 72 -1 25.5000 141.662 9 960 0 0 25.6925 142.370 4 68 965 25.7577 142.715 T 65 960 25.3575 141.928 TC 72 25.3165 141.919 4 72 25.3575 141.928 72 961 540 9 33
1976135N09153 1976 55 WP MM PAMELA 1976-05-25 06:00:00 TS 25.8621 142.367 960 tokyo main 1030 1004 OOOO_____OPO__ jtwc_wp WP061976 25.7000 142.200 70 1 26.0000 142.000 9 960 0 0 0 26.1000 142.700 4 68 965 26.2000 143.100 T 65 960 25.7000 142.200 TC 70 25.6344 142.169 4 70 25.7000 142.200 70 962 540 9 37
1976135N09153 1976 55 WP MM PAMELA 1976-05-25 09:00:00 TS 26.1934 142.657 main 1006 979 PPPP_____PPP__ WP061976 25.9999 142.485 67 -1 26.3797 142.355 9 962 0 0 26.5075 143.043 4 68 965 26.5072 143.308 T 65 962 25.9999 142.485 TC 67 25.9601 142.460 4 67 25.9998 142.463 67 963 540 9 40
1976135N09153 1976 55 WP MM PAMELA 1976-05-25 12:00:00 TS 26.5143 142.986 965 tokyo main 982 959 OOOO_____OOO__ jtwc_wp WP061976 26.3000 142.800 65 1 26.7000 142.800 9 965 0 0 0 26.9000 143.400 4 68 965 26.8000 143.500 T 65 965 26.3000 142.800 TC 65 26.3000 142.800 4 65 26.3000 142.800 65 965 540 9 44
1976135N09153 1976 55 WP MM PAMELA 1976-05-25 15:00:00 TS 26.8623 143.376 main 952 931 PPPP_____PPP__ WP061976 26.6347 143.113 62 -1 27.0003 143.385 9 967 0 0 27.2723 143.735 4 68 967 27.2077 143.857 T 65 965 26.6347 143.113 TC 62 26.6512 143.145 4 62 26.6352 143.285 62 966 540 10 46
1976135N09153 1976 55 WP MM PAMELA 1976-05-25 18:00:00 TS 27.2168 143.806 970 tokyo main 935 916 OOOO_____OPO__ jtwc_wp WP061976 27.0000 143.500 XX 60 -5 27.3000 144.000 9 970 0 0 0 27.6000 144.100 4 68 970 27.6000 144.200 T 65 965 27.0000 143.500 TC 60 27.0178 143.546 4 60 27.0000 143.800 60 967 540 10 47
1976135N09153 1976 55 WP MM PAMELA 1976-05-25 21:00:00 TS 27.5564 144.207 main 910 898 PPPP_____PPP__ WP061976 27.4071 143.983 57 -1 27.6193 144.486 9 970 0 0 27.8270 144.491 4 68 970 27.8270 144.329 T 62 967 27.4071 143.983 TC 57 27.4005 144.024 4 57 27.4066 144.156 57 968 540 11 49
1976135N09153 1976 55 WP MM PAMELA 1976-05-26 00:00:00 TS 27.9143 144.700 970 tokyo main 903 893 OOOO_____OOO__ jtwc_wp WP061976 27.8000 144.600 55 -1 28.0000 145.000 9 970 0 0 0 28.1000 145.000 4 68 970 28.1000 144.500 STS 60 970 27.8000 144.600 TC 55 27.8000 144.600 2 55 27.8000 144.600 55 970 540 13 55
1976135N09153 1976 55 WP MM PAMELA 1976-05-26 03:00:00 TS 28.2909 145.386 main 900 897 PPPP_____PPP__ WP061976 28.0776 145.364 52 -1 28.4773 145.655 9 970 0 0 28.5629 145.712 4 68 970 28.5899 144.918 STS 55 970 28.0776 145.364 TC 52 28.1729 145.348 2 52 28.0779 145.341 52 970 570 15 58
1976135N09153 1976 55 WP MM PAMELA 1976-05-26 06:00:00 TS 28.7235 146.169 970 tokyo main 907 900 OOOO_____OPO__ jtwc_wp WP061976 28.4000 146.200 50 -1 29.0000 146.400 9 970 0 0 0 29.1000 146.500 4 68 970 29.2000 145.500 STS 50 970 28.4000 146.200 TC 50 28.5642 146.185 2 50 28.4000 146.200 50 970 600 17 56
1976135N09153 1976 55 WP MM PAMELA 1976-05-26 09:00:00 TS 29.2344 146.963 main 911 901 PPPP_____PPP__ WP061976 28.9052 147.044 47 -1 29.4853 147.215 9 970 0 0 29.5920 147.208 4 68 972 29.8498 146.155 STS 50 970 28.9052 147.044 TC 47 28.9979 147.030 2 47 28.9052 147.044 47 970 600 17 51
1976135N09153 1976 55 WP MM PAMELA 1976-05-26 12:00:00 TS 29.8000 147.714 970 tokyo main 910 907 OOOO_____OOO__ jtwc_wp WP061976 29.5000 147.800 45 -1 30.0000 148.000 9 970 0 0 0 30.1000 147.900 4 68 975 30.5000 146.900 STS 50 970 29.5000 147.800 TC 45 29.5000 147.800 2 45 29.5000 147.800 45 970 600 16 46
1976135N09153 1976 55 WP MM PAMELA 1976-05-26 15:00:00 TS 30.3725 148.323 main 906 906 PPPP_____PPP__ WP061976 30.0692 148.347 45 -1 30.5917 148.623 9 970 0 0 30.6274 148.616 4 63 975 31.0941 147.656 STS 45 972 30.0692 148.347 TC 45 30.0864 148.328 2 45 30.0692 148.347 45 971 630 15 41
1976135N09153 1976 55 WP MM PAMELA 1976-05-26 18:00:00 TS 30.9550 148.897 970 tokyo main 907 907 OOOO_____OPO__ jtwc_wp WP061976 30.7000 148.800 45 -1 31.2000 149.200 9 970 0 0 0 31.2000 149.300 3 58 975 31.6000 148.500 TS 40 975 30.7000 148.800 TC 45 30.7461 148.780 2 45 30.7000 148.800 45 972 660 16 39
1976135N09153 1976 55 WP MM PAMELA 1976-05-26 21:00:00 TS 31.5823 149.451 main 916 910 PPPP_____PPP__ WP061976 31.4264 149.242 45 -1 31.7423 149.844 9 972 0 0 31.8116 149.887 3 53 975 31.9870 149.464 TS 40 975 31.4264 149.242 TC 45 31.4580 149.242 2 45 31.4264 149.242 45 973 660 16 37
1976135N09153 1976 55 WP MM PAMELA 1976-05-27 00:00:00 TS 32.2680 150.052 975 tokyo main 926 926 OOOO_____OOO__ jtwc_wp WP061976 32.2000 149.800 45 -1 32.3000 150.500 9 975 0 0 0 32.5000 150.500 3 48 975 32.3000 150.500 TS 40 975 32.2000 149.800 TC 45 32.2000 149.800 2 45 32.2000 149.800 45 975 660 18 40
1976135N09153 1976 55 WP MM PAMELA 1976-05-27 03:00:00 TS 32.9772 150.830 main 955 955 PPP______PPP__ WP061976 32.9505 150.640 42 -1 32.8892 151.123 9 975 0 0 33.2632 151.307 3 48 975 TS 32.9505 150.640 TC 42 32.8591 150.627 2 43 32.9505 150.640 42 975 660 20 44
1976135N09153 1976 55 WP MM PAMELA 1976-05-27 06:00:00 TS 33.7247 151.710 975 tokyo main 1009 1009 OOO______OPO__ jtwc_wp WP061976 33.7000 151.600 40 -1 33.6000 151.800 9 975 0 0 0 34.1000 152.100 3 48 975 33.7000 151.600 TC 40 33.5481 151.558 2 42 33.7000 151.600 40 975 660 21 44
1976135N09153 1976 55 WP MM PAMELA 1976-05-27 09:00:00 TS 34.4954 152.577 main 1069 1069 PPP______PPP__ WP061976 34.3826 152.540 40 -1 34.5353 152.633 9 975 0 0 34.9768 152.697 3 48 975 34.3826 152.540 TC 40 34.3124 152.510 2 41 34.3826 152.540 40 975 690 21 40
1976135N09153 1976 55 WP MM PAMELA 1976-05-27 12:00:00 TS 35.3667 153.383 975 tokyo main 1093 1054 OOO______OOO__ jtwc_wp WP061976 35.2000 153.400 40 -1 35.5000 153.500 9 975 0 0 0 35.9000 153.200 3 48 975 35.2000 153.400 TC 40 35.2000 153.400 2 40 35.2000 153.400 40 975 720 22 33
1976135N09153 1976 55 WP MM PAMELA 1976-05-27 15:00:00 TS 36.3868 154.059 main 1052 987 PPP______PPP__ WP061976 36.3316 154.089 42 -1 36.1674 154.307 9 975 0 0 36.8192 153.673 3 43 977 36.3316 154.089 TC 42 36.3396 154.107 2 42 36.3316 154.089 42 974 720 24 26
1976135N09153 1976 55 WP MM PAMELA 1976-05-27 18:00:00 TS 37.5325 154.674 975 tokyo main 991 890 OOO______OPO__ jtwc_wp WP061976 37.6000 154.700 45 -1 37.0000 155.000 9 975 0 0 0 37.8000 154.200 2 38 980 37.6000 154.700 TC 45 37.5948 154.746 2 45 37.6000 154.700 45 973 720 26 22
1976135N09153 1976 55 WP MM PAMELA 1976-05-27 21:00:00 TS 38.8088 155.302 main 884 809 PPP______PPP__ WP061976 38.8668 155.336 47 -1 38.4690 155.516 9 973 0 0 38.9304 154.925 2 38 977 38.8668 155.336 TC 47 38.8529 155.363 2 47 38.8668 155.336 47 972 720 27 22
1976135N09153 1976 55 WP MM PAMELA 1976-05-28 00:00:00 MX 40.0000 155.950 972 tokyo main 805 768 OOO______OOO__ jtwc_wp WP061976 40.0000 156.000 50 -1 40.0000 156.000 6 972 0 0 0 40.0000 155.700 9 38 975 40.0000 156.000 TC 50 40.0000 156.000 2 50 40.0000 156.000 50 972 720 23 27
1976135N09153 1976 55 WP MM PAMELA 1976-05-28 03:00:00 MX 40.8720 156.656 main 765 742 PPP______PPP__ WP061976 40.8172 156.738 50 -1 41.0992 156.599 6 972 0 0 40.8015 156.354 9 975 40.8172 156.738 TC 50 40.8797 156.768 2 48 40.8172 156.738 50 972 690 19 34
1976135N09153 1976 55 WP MM PAMELA 1976-05-28 06:00:00 MX 41.5893 157.392 972 tokyo main 748 742 OOO______OPO__ jtwc_wp WP061976 41.5000 157.500 50 -1 41.9000 157.300 6 972 0 0 0 41.5000 157.000 9 975 41.5000 157.500 TC 50 41.6358 157.552 2 47 41.5000 157.500 50 972 660 18 39
1976135N09153 1976 55 WP MM PAMELA 1976-05-28 09:00:00 MX 42.2925 158.181 main 749 749 PPP______PPP__ WP061976 42.2501 158.288 47 -1 42.4384 158.175 6 972 0 0 42.2423 157.737 9 975 42.2501 158.288 TC 47 42.3238 158.310 2 46 42.2501 158.288 47 972 630 18 39
1976135N09153 1976 55 WP MM PAMELA 1976-05-28 12:00:00 MX 42.9833 158.917 972 tokyo main 753 753 OOO______OOO__ jtwc_wp WP061976 43.0000 159.000 45 -1 42.9000 159.000 6 972 0 0 0 43.0000 158.500 9 975 43.0000 159.000 TC 45 43.0000 159.000 2 45 43.0000 159.000 45 972 600 17 34
1976135N09153 1976 55 WP MM PAMELA 1976-05-28 15:00:00 MX 43.7145 159.514 main 761 711 PPP______PPP__ WP061976 43.7492 159.540 42 -1 43.5240 159.555 6 974 0 0 43.8076 159.287 9 975 43.7492 159.540 TC 42 43.7078 159.618 2 43 43.7492 159.540 42 974 570 17 28
1976135N09153 1976 55 WP MM PAMELA 1976-05-28 18:00:00 MX 44.4706 160.026 976 tokyo main 701 652 OOO______OPO__ jtwc_wp WP061976 44.5000 160.000 40 -1 44.3000 160.000 6 976 0 0 0 44.6000 160.000 9 975 44.5000 160.000 TC 40 44.4233 160.157 2 42 44.5000 160.000 40 976 540 17 26
1976135N09153 1976 55 WP MM PAMELA 1976-05-28 21:00:00 MX 45.2271 160.553 main 656 599 PPP______PPP__ WP061976 45.2127 160.538 40 -1 45.2778 160.543 6 978 0 0 45.2692 160.542 9 975 45.2127 160.538 TC 40 45.1773 160.617 2 41 45.2127 160.538 40 978 510 17 24
1976135N09153 1976 55 WP MM PAMELA 1976-05-29 00:00:00 MX 46.0500 161.000 980 tokyo main 590 538 OOO______OOO__ jtwc_wp WP061976 46.0000 161.000 40 -1 46.3000 161.000 6 980 0 0 0 46.0000 161.000 9 975 46.0000 161.000 TC 40 46.0000 161.000 2 40 46.0000 161.000 40 980 480 18 17
1976135N09153 1976 55 WP MM PAMELA 1976-05-29 03:00:00 MX 46.9840 161.329 main 531 484 PPP______PPP__ WP061976 46.9621 161.290 40 -1 47.1496 161.256 6 980 0 0 46.9552 161.536 9 977 46.9621 161.290 TC 40 46.9128 161.311 2 40 46.9621 161.290 40 980 570 20 12
1976135N09153 1976 55 WP MM PAMELA 1976-05-29 06:00:00 MX 47.9851 161.590 980 tokyo main 476 398 OOO______OPO__ jtwc_wp WP061976 48.0000 161.500 40 -1 48.0000 161.400 6 980 0 0 0 48.0000 162.000 9 980 48.0000 161.500 TC 40 47.9004 161.568 2 40 48.0000 161.500 40 980 660 20 10
1976135N09153 1976 55 WP MM PAMELA 1976-05-29 09:00:00 MX 49.0063 161.840 main 398 343 PPP______PPP__ WP061976 49.0127 161.735 40 -1 49.0375 161.572 6 980 0 0 48.9996 162.291 9 980 49.0127 161.735 TC 40 48.9380 161.791 2 40 49.0127 161.735 40 980 750 20 8
1976135N09153 1976 55 WP MM PAMELA 1976-05-29 12:00:00 MX 50.0000 162.027 980 tokyo main 337 289 OOO______OOO__ jtwc_wp WP061976 50.0000 162.000 40 -1 50.0000 161.700 6 980 0 0 0 50.0000 162.500 9 980 50.0000 162.000 TC 40 50.0000 162.000 2 40 50.0000 162.000 40 980 840 18 5
1976135N09153 1976 55 WP MM PAMELA 1976-05-29 15:00:00 ET 50.7933 162.084 main 289 237 _PP___________ WP061976 -1 50.6899 161.759 6 980 0 0 51.0003 162.734 9 980 TC 2 14 1
1976135N09153 1976 55 WP MM PAMELA 1976-05-29 18:00:00 ET 51.3600 162.040 980 tokyo main 228 202 _OO___________ -1 51.2000 161.800 6 980 0 0 0 52.0000 163.000 9 980 2 8 349
1976135N09153 1976 55 WP MM PAMELA 1976-05-29 21:00:00 ET 51.6146 161.835 main 202 176 _P____________ -1 51.6146 161.835 6 980 0 0 9 2 6 358
1976135N09153 1976 55 WP MM PAMELA 1976-05-30 00:00:00 ET 52.0000 162.000 980 tokyo main 176 166 _O____________ -1 52.0000 162.000 6 980 0 0 0 9 23
1976135N09153 1976 55 WP MM PAMELA 1976-05-30 03:00:00 ET 52.4854 162.439 main 167 167 _P____________ -1 52.4854 162.439 6 980 0 0 12 31
1976135N09153 1976 55 WP MM PAMELA 1976-05-30 06:00:00 ET 53.0000 163.000 980 tokyo main 186 160 _O____________ -1 53.0000 163.000 6 980 0 0 0 12 32
1976135N09153 1976 55 WP MM PAMELA 1976-05-30 09:00:00 ET 53.4998 163.501 main 160 144 _P____________ -1 53.4998 163.501 6 980 0 0 12 31
1976135N09153 1976 55 WP MM PAMELA 1976-05-30 12:00:00 ET 54.0000 164.000 980 tokyo main 144 144 _O____________ -1 54.0000 164.000 6 980 0 0 0 12 30
1976135N09153 1976 55 WP MM PAMELA 1976-05-30 15:00:00 ET 54.4998 164.501 main 155 155 _P____________ -1 54.4998 164.501 6 983 0 0 12 30
1976135N09153 1976 55 WP MM PAMELA 1976-05-30 18:00:00 ET 55.0000 165.000 986 tokyo main 165 146 _O____________ -1 55.0000 165.000 6 986 0 0 0 12 29
1976135N09153 1976 55 WP MM PAMELA 1976-05-30 21:00:00 ET 55.5372 165.493 main 151 146 _P____________ -1 55.5372 165.493 6 989 0 0 11 30
1976135N09153 1976 55 WP MM PAMELA 1976-05-31 00:00:00 ET 56.0000 166.000 992 tokyo main 161 161 _O____________ -1 56.0000 166.000 6 992 0 0 0 9 36
1976135N09153 1976 55 WP MM PAMELA 1976-05-31 03:00:00 ET 56.2862 166.478 main 190 190 _P____________ -1 56.2862 166.478 6 993 0 0 8 51
1976135N09153 1976 55 WP MM PAMELA 1976-05-31 06:00:00 ET 56.5000 167.100 994 tokyo main 229 229 _O____________ -1 56.5000 167.100 6 994 0 0 0 10 61
1976135N09153 1976 55 WP MM PAMELA 1976-05-31 09:00:00 ET 56.7498 168.003 main 286 286 _P____________ -1 56.7498 168.003 6 995 0 0 12 65
1976135N09153 1976 55 WP MM PAMELA 1976-05-31 12:00:00 ET 57.0000 169.100 996 tokyo main 328 298 _O____________ -1 57.0000 169.100 6 996 0 0 0 13 68
1976135N09153 1976 55 WP MM PAMELA 1976-05-31 15:00:00 ET 57.2495 170.264 main 298 271 _P____________ -1 57.2495 170.264 6 996 0 0 14 69
1976135N09153 1976 55 WP MM PAMELA 1976-05-31 18:00:00 ET 57.5000 171.500 996 tokyo main 274 268 _O____________ -1 57.5000 171.500 6 996 0 0 0 14 69
1976135N09153 1976 55 WP MM PAMELA 1976-05-31 21:00:00 ET 57.7522 172.747 main 269 269 _P____________ -1 57.7522 172.747 6 996 0 0 14 69
1976135N09153 1976 55 WP MM PAMELA 1976-06-01 00:00:00 ET 58.0000 174.000 996 tokyo main 297 _O____________ -1 58.0000 174.000 6 996 0 0 0 14 70

デジタル台風データ・検索

IBTrACS Databaseについて

本データベースは、米国NOAAが公開する1842年以降の世界の熱帯低気圧のベストトラックデータアーカイブInternational Best Track Archive for Climate Stewardship (IBTrACS)を、ウェブで閲覧しやすい形式に変換したものです。

最終更新日:2021-10-08